sensor_id;sensor_type;location;lat;lon;timestamp;noise_LAeq;noise_LA_min;noise_LA_max;noise_LA01;noise_LA95
66888;Laerm;67239;51.680;5.976;2023-08-17T00:00:04;54.05;35.15;71.99;;
66888;Laerm;67239;51.680;5.976;2023-08-17T00:02:35;41.32;37.78;45.33;;
66888;Laerm;67239;51.680;5.976;2023-08-17T00:05:02;39.16;34.97;46.31;;
66888;Laerm;67239;51.680;5.976;2023-08-17T00:07:29;35.71;32.73;39.87;;
66888;Laerm;67239;51.680;5.976;2023-08-17T00:09:56;37.65;33.32;43.62;;
66888;Laerm;67239;51.680;5.976;2023-08-17T00:12:24;41.00;37.51;52.13;;
66888;Laerm;67239;51.680;5.976;2023-08-17T00:14:52;54.59;36.07;72.82;;
66888;Laerm;67239;51.680;5.976;2023-08-17T00:17:21;66.43;36.15;86.89;;
66888;Laerm;67239;51.680;5.976;2023-08-17T00:19:49;42.15;36.13;48.37;;
66888;Laerm;67239;51.680;5.976;2023-08-17T00:22:17;39.58;34.39;43.66;;
66888;Laerm;67239;51.680;5.976;2023-08-17T00:24:44;41.17;34.82;46.68;;
66888;Laerm;67239;51.680;5.976;2023-08-17T00:27:12;54.71;35.21;73.63;;
66888;Laerm;67239;51.680;5.976;2023-08-17T00:29:39;55.25;33.56;74.02;;
66888;Laerm;67239;51.680;5.976;2023-08-17T00:32:06;60.82;33.78;80.59;;
66888;Laerm;67239;51.680;5.976;2023-08-17T00:34:35;39.02;35.56;52.25;;
66888;Laerm;67239;51.680;5.976;2023-08-17T00:37:02;38.78;33.80;51.95;;
66888;Laerm;67239;51.680;5.976;2023-08-17T00:39:30;39.08;33.68;44.00;;
66888;Laerm;67239;51.680;5.976;2023-08-17T00:41:57;40.84;35.78;56.17;;
66888;Laerm;67239;51.680;5.976;2023-08-17T00:44:24;39.82;35.12;52.78;;
66888;Laerm;67239;51.680;5.976;2023-08-17T00:46:51;59.93;35.66;77.05;;
66888;Laerm;67239;51.680;5.976;2023-08-17T00:49:18;39.01;35.50;42.11;;
66888;Laerm;67239;51.680;5.976;2023-08-17T00:51:46;40.69;34.04;53.71;;
66888;Laerm;67239;51.680;5.976;2023-08-17T00:54:19;38.93;35.39;43.72;;
66888;Laerm;67239;51.680;5.976;2023-08-17T00:56:51;42.26;35.41;55.44;;
66888;Laerm;67239;51.680;5.976;2023-08-17T00:59:18;41.08;36.39;47.22;;
66888;Laerm;67239;51.680;5.976;2023-08-17T01:01:46;43.16;37.06;50.64;;
66888;Laerm;67239;51.680;5.976;2023-08-17T01:04:14;42.08;35.10;49.15;;
66888;Laerm;67239;51.680;5.976;2023-08-17T01:06:41;39.48;33.69;46.45;;
66888;Laerm;67239;51.680;5.976;2023-08-17T01:09:09;45.32;35.52;52.79;;
66888;Laerm;67239;51.680;5.976;2023-08-17T01:11:44;42.09;36.98;48.00;;
66888;Laerm;67239;51.680;5.976;2023-08-17T01:14:32;39.37;35.52;47.11;;
66888;Laerm;67239;51.680;5.976;2023-08-17T01:17:22;43.72;36.90;53.03;;
66888;Laerm;67239;51.680;5.976;2023-08-17T01:19:53;38.76;34.69;44.82;;
66888;Laerm;67239;51.680;5.976;2023-08-17T01:22:22;43.35;37.46;50.34;;
66888;Laerm;67239;51.680;5.976;2023-08-17T01:24:49;42.61;36.34;47.75;;
66888;Laerm;67239;51.680;5.976;2023-08-17T01:27:17;41.75;35.27;46.50;;
66888;Laerm;67239;51.680;5.976;2023-08-17T01:29:44;41.29;35.87;45.11;;
66888;Laerm;67239;51.680;5.976;2023-08-17T01:32:48;43.00;39.83;47.30;;
66888;Laerm;67239;51.680;5.976;2023-08-17T01:35:36;42.95;39.50;47.05;;
66888;Laerm;67239;51.680;5.976;2023-08-17T01:38:14;40.76;35.48;45.69;;
66888;Laerm;67239;51.680;5.976;2023-08-17T01:40:45;42.59;35.29;48.47;;
66888;Laerm;67239;51.680;5.976;2023-08-17T01:43:16;41.63;35.92;46.83;;
66888;Laerm;67239;51.680;5.976;2023-08-17T01:45:44;40.17;34.77;47.75;;
66888;Laerm;67239;51.680;5.976;2023-08-17T01:48:11;38.41;33.89;48.38;;
66888;Laerm;67239;51.680;5.976;2023-08-17T01:50:38;36.10;32.42;42.90;;
66888;Laerm;67239;51.680;5.976;2023-08-17T01:53:05;38.46;34.73;49.63;;
66888;Laerm;67239;51.680;5.976;2023-08-17T01:55:32;37.39;33.67;45.34;;
66888;Laerm;67239;51.680;5.976;2023-08-17T01:58:02;38.51;34.45;43.38;;
66888;Laerm;67239;51.680;5.976;2023-08-17T02:00:29;64.34;36.34;81.00;;
66888;Laerm;67239;51.680;5.976;2023-08-17T02:02:56;39.20;33.86;49.76;;
66888;Laerm;67239;51.680;5.976;2023-08-17T02:05:25;58.05;33.61;79.14;;
66888;Laerm;67239;51.680;5.976;2023-08-17T02:07:55;38.04;33.62;43.90;;
66888;Laerm;67239;51.680;5.976;2023-08-17T02:10:22;36.81;33.09;41.71;;
66888;Laerm;67239;51.680;5.976;2023-08-17T02:12:49;38.13;34.13;46.35;;
66888;Laerm;67239;51.680;5.976;2023-08-17T02:15:24;56.89;32.68;73.99;;
66888;Laerm;67239;51.680;5.976;2023-08-17T02:17:52;38.66;33.04;49.49;;
66888;Laerm;67239;51.680;5.976;2023-08-17T02:20:19;36.13;32.31;43.96;;
66888;Laerm;67239;51.680;5.976;2023-08-17T02:22:46;35.64;31.72;43.69;;
66888;Laerm;67239;51.680;5.976;2023-08-17T02:25:13;34.34;31.66;39.01;;
66888;Laerm;67239;51.680;5.976;2023-08-17T02:27:40;33.65;31.53;36.27;;
66888;Laerm;67239;51.680;5.976;2023-08-17T02:30:08;33.76;31.31;39.41;;
66888;Laerm;67239;51.680;5.976;2023-08-17T02:32:35;34.58;31.70;52.39;;
66888;Laerm;67239;51.680;5.976;2023-08-17T02:35:03;57.14;31.96;77.86;;
66888;Laerm;67239;51.680;5.976;2023-08-17T02:37:30;55.44;32.46;74.72;;
66888;Laerm;67239;51.680;5.976;2023-08-17T02:39:57;64.11;32.81;80.45;;
66888;Laerm;67239;51.680;5.976;2023-08-17T02:42:24;37.55;32.61;48.01;;
66888;Laerm;67239;51.680;5.976;2023-08-17T02:44:53;37.25;33.26;45.70;;
66888;Laerm;67239;51.680;5.976;2023-08-17T02:47:20;38.17;34.24;44.79;;
66888;Laerm;67239;51.680;5.976;2023-08-17T02:49:47;37.45;32.21;49.82;;
66888;Laerm;67239;51.680;5.976;2023-08-17T02:52:16;53.77;31.78;69.44;;
66888;Laerm;67239;51.680;5.976;2023-08-17T02:54:43;37.96;33.18;55.76;;
66888;Laerm;67239;51.680;5.976;2023-08-17T02:57:13;61.26;32.62;80.87;;
66888;Laerm;67239;51.680;5.976;2023-08-17T02:59:40;34.32;32.17;39.31;;
66888;Laerm;67239;51.680;5.976;2023-08-17T03:02:07;44.24;33.41;57.84;;
66888;Laerm;67239;51.680;5.976;2023-08-17T03:04:34;54.70;34.98;71.62;;
66888;Laerm;67239;51.680;5.976;2023-08-17T03:07:02;58.87;33.13;76.14;;
66888;Laerm;67239;51.680;5.976;2023-08-17T03:09:29;55.81;33.00;73.32;;
66888;Laerm;67239;51.680;5.976;2023-08-17T03:11:56;52.38;35.41;70.37;;
66888;Laerm;67239;51.680;5.976;2023-08-17T03:14:23;55.30;32.63;75.70;;
66888;Laerm;67239;51.680;5.976;2023-08-17T03:16:50;60.56;34.49;78.61;;
66888;Laerm;67239;51.680;5.976;2023-08-17T03:19:18;55.69;34.95;75.42;;
66888;Laerm;67239;51.680;5.976;2023-08-17T03:21:45;61.96;34.83;76.79;;
66888;Laerm;67239;51.680;5.976;2023-08-17T03:24:12;56.56;35.00;74.05;;
66888;Laerm;67239;51.680;5.976;2023-08-17T03:26:39;60.06;35.74;77.91;;
66888;Laerm;67239;51.680;5.976;2023-08-17T03:29:07;55.11;36.10;73.38;;
66888;Laerm;67239;51.680;5.976;2023-08-17T03:31:36;62.58;34.84;80.77;;
66888;Laerm;67239;51.680;5.976;2023-08-17T03:34:06;65.68;35.89;78.41;;
66888;Laerm;67239;51.680;5.976;2023-08-17T03:36:34;62.82;37.47;78.28;;
66888;Laerm;67239;51.680;5.976;2023-08-17T03:39:01;55.64;36.00;73.94;;
66888;Laerm;67239;51.680;5.976;2023-08-17T03:41:28;54.38;36.47;71.17;;
66888;Laerm;67239;51.680;5.976;2023-08-17T03:43:55;59.76;35.86;77.76;;
66888;Laerm;67239;51.680;5.976;2023-08-17T03:46:23;53.49;36.03;70.54;;
66888;Laerm;67239;51.680;5.976;2023-08-17T03:48:51;58.78;35.06;75.20;;
66888;Laerm;67239;51.680;5.976;2023-08-17T03:51:18;54.65;34.41;72.30;;
66888;Laerm;67239;51.680;5.976;2023-08-17T03:53:45;65.27;36.96;77.72;;
66888;Laerm;67239;51.680;5.976;2023-08-17T03:56:13;64.71;37.30;80.85;;
66888;Laerm;67239;51.680;5.976;2023-08-17T03:58:41;65.44;39.15;81.04;;
66888;Laerm;67239;51.680;5.976;2023-08-17T04:01:09;63.09;37.08;80.65;;
66888;Laerm;67239;51.680;5.976;2023-08-17T04:03:40;65.25;39.18;82.41;;
66888;Laerm;67239;51.680;5.976;2023-08-17T04:06:08;65.60;38.47;81.36;;
66888;Laerm;67239;51.680;5.976;2023-08-17T04:08:38;56.25;38.05;71.65;;
66888;Laerm;67239;51.680;5.976;2023-08-17T04:11:05;63.83;40.67;78.32;;
66888;Laerm;67239;51.680;5.976;2023-08-17T04:13:32;57.06;36.51;74.22;;
66888;Laerm;67239;51.680;5.976;2023-08-17T04:16:00;64.60;38.01;82.93;;
66888;Laerm;67239;51.680;5.976;2023-08-17T04:18:27;64.08;37.34;81.63;;
66888;Laerm;67239;51.680;5.976;2023-08-17T04:20:54;64.53;39.93;78.45;;
66888;Laerm;67239;51.680;5.976;2023-08-17T04:23:22;58.15;36.99;77.27;;
66888;Laerm;67239;51.680;5.976;2023-08-17T04:25:49;58.70;35.62;76.71;;
66888;Laerm;67239;51.680;5.976;2023-08-17T04:28:16;57.42;37.77;73.40;;
66888;Laerm;67239;51.680;5.976;2023-08-17T04:30:44;66.22;39.70;82.19;;
66888;Laerm;67239;51.680;5.976;2023-08-17T04:33:12;61.14;38.09;76.86;;
66888;Laerm;67239;51.680;5.976;2023-08-17T04:35:39;64.58;41.62;79.69;;
66888;Laerm;67239;51.680;5.976;2023-08-17T04:38:07;67.53;39.95;83.56;;
66888;Laerm;67239;51.680;5.976;2023-08-17T04:40:34;60.12;39.44;74.18;;
66888;Laerm;67239;51.680;5.976;2023-08-17T04:43:01;67.51;41.66;79.80;;
66888;Laerm;67239;51.680;5.976;2023-08-17T04:45:28;65.11;40.17;78.46;;
66888;Laerm;67239;51.680;5.976;2023-08-17T04:47:56;65.97;41.37;79.94;;
66888;Laerm;67239;51.680;5.976;2023-08-17T04:50:23;57.60;38.95;75.64;;
66888;Laerm;67239;51.680;5.976;2023-08-17T04:52:52;67.22;40.70;84.34;;
66888;Laerm;67239;51.680;5.976;2023-08-17T04:55:20;67.13;41.97;79.81;;
66888;Laerm;67239;51.680;5.976;2023-08-17T04:57:48;66.90;43.18;78.78;;
66888;Laerm;67239;51.680;5.976;2023-08-17T05:00:16;67.45;40.18;79.44;;
66888;Laerm;67239;51.680;5.976;2023-08-17T05:02:43;72.74;43.54;95.80;;
66888;Laerm;67239;51.680;5.976;2023-08-17T05:05:11;66.35;42.06;81.82;;
66888;Laerm;67239;51.680;5.976;2023-08-17T05:07:39;61.28;38.73;76.36;;
66888;Laerm;67239;51.680;5.976;2023-08-17T05:10:07;64.49;40.22;79.76;;
66888;Laerm;67239;51.680;5.976;2023-08-17T05:12:37;56.90;39.25;72.66;;
66888;Laerm;67239;51.680;5.976;2023-08-17T05:15:04;64.52;41.58;77.81;;
66888;Laerm;67239;51.680;5.976;2023-08-17T05:17:33;65.23;41.10;79.24;;
66888;Laerm;67239;51.680;5.976;2023-08-17T05:20:00;65.56;43.51;77.86;;
66888;Laerm;67239;51.680;5.976;2023-08-17T05:22:28;66.73;42.83;80.66;;
66888;Laerm;67239;51.680;5.976;2023-08-17T05:24:55;68.21;41.55;81.45;;
66888;Laerm;67239;51.680;5.976;2023-08-17T05:27:22;60.93;39.26;74.29;;
66888;Laerm;67239;51.680;5.976;2023-08-17T05:29:50;66.93;40.68;81.14;;
66888;Laerm;67239;51.680;5.976;2023-08-17T05:32:17;67.55;40.19;82.93;;
66888;Laerm;67239;51.680;5.976;2023-08-17T05:34:47;64.53;43.66;78.41;;
66888;Laerm;67239;51.680;5.976;2023-08-17T05:37:14;65.53;40.17;78.55;;
66888;Laerm;67239;51.680;5.976;2023-08-17T05:39:42;64.06;39.63;78.45;;
66888;Laerm;67239;51.680;5.976;2023-08-17T05:42:09;66.52;43.89;80.54;;
66888;Laerm;67239;51.680;5.976;2023-08-17T05:44:36;69.52;46.33;82.20;;
66888;Laerm;67239;51.680;5.976;2023-08-17T05:47:03;66.48;39.10;81.89;;
66888;Laerm;67239;51.680;5.976;2023-08-17T05:49:31;64.96;39.91;77.34;;
66888;Laerm;67239;51.680;5.976;2023-08-17T05:51:58;68.27;39.83;83.33;;
66888;Laerm;67239;51.680;5.976;2023-08-17T05:54:25;64.29;39.93;78.71;;
66888;Laerm;67239;51.680;5.976;2023-08-17T05:56:52;69.15;42.82;80.99;;
66888;Laerm;67239;51.680;5.976;2023-08-17T05:59:19;68.65;43.53;82.61;;
66888;Laerm;67239;51.680;5.976;2023-08-17T06:01:46;68.32;47.07;80.79;;
66888;Laerm;67239;51.680;5.976;2023-08-17T06:04:13;67.29;40.85;80.70;;
66888;Laerm;67239;51.680;5.976;2023-08-17T06:06:40;68.09;48.39;81.78;;
66888;Laerm;67239;51.680;5.976;2023-08-17T06:09:07;68.93;47.10;81.03;;
66888;Laerm;67239;51.680;5.976;2023-08-17T06:11:35;67.48;42.90;84.63;;
66888;Laerm;67239;51.680;5.976;2023-08-17T06:14:03;63.76;42.73;77.76;;
66888;Laerm;67239;51.680;5.976;2023-08-17T06:16:30;67.52;42.44;81.14;;
66888;Laerm;67239;51.680;5.976;2023-08-17T06:18:57;68.32;42.39;84.58;;
66888;Laerm;67239;51.680;5.976;2023-08-17T06:21:24;69.96;48.77;84.31;;
66888;Laerm;67239;51.680;5.976;2023-08-17T06:23:51;69.70;43.32;88.13;;
66888;Laerm;67239;51.680;5.976;2023-08-17T06:26:18;65.85;43.02;78.49;;
66888;Laerm;67239;51.680;5.976;2023-08-17T06:28:46;64.04;42.19;79.72;;
66888;Laerm;67239;51.680;5.976;2023-08-17T06:31:15;67.61;40.84;81.37;;
66888;Laerm;67239;51.680;5.976;2023-08-17T06:33:43;66.38;44.41;82.77;;
66888;Laerm;67239;51.680;5.976;2023-08-17T06:36:10;67.96;41.19;85.02;;
66888;Laerm;67239;51.680;5.976;2023-08-17T06:38:40;66.95;40.74;79.94;;
66888;Laerm;67239;51.680;5.976;2023-08-17T06:41:07;67.79;41.84;82.36;;
66888;Laerm;67239;51.680;5.976;2023-08-17T06:43:34;68.14;42.98;84.97;;
66888;Laerm;67239;51.680;5.976;2023-08-17T06:46:01;62.21;40.23;78.26;;
66888;Laerm;67239;51.680;5.976;2023-08-17T06:48:28;65.62;42.38;77.80;;
66888;Laerm;67239;51.680;5.976;2023-08-17T06:50:56;67.46;44.50;80.05;;
66888;Laerm;67239;51.680;5.976;2023-08-17T06:53:22;66.61;42.10;80.53;;
66888;Laerm;67239;51.680;5.976;2023-08-17T06:55:50;66.15;44.06;77.78;;
66888;Laerm;67239;51.680;5.976;2023-08-17T06:58:17;67.60;43.45;80.33;;
66888;Laerm;67239;51.680;5.976;2023-08-17T07:00:44;68.86;46.75;84.72;;
66888;Laerm;67239;51.680;5.976;2023-08-17T07:03:12;62.79;41.79;75.27;;
66888;Laerm;67239;51.680;5.976;2023-08-17T07:05:39;69.76;40.96;83.19;;
66888;Laerm;67239;51.680;5.976;2023-08-17T07:08:06;66.08;40.86;83.56;;
66888;Laerm;67239;51.680;5.976;2023-08-17T07:10:33;68.88;40.17;82.51;;
66888;Laerm;67239;51.680;5.976;2023-08-17T07:13:01;68.41;43.15;84.08;;
66888;Laerm;67239;51.680;5.976;2023-08-17T07:15:32;67.58;42.00;82.66;;
66888;Laerm;67239;51.680;5.976;2023-08-17T07:17:59;67.91;42.34;81.80;;
66888;Laerm;67239;51.680;5.976;2023-08-17T07:20:26;66.71;40.43;78.85;;
66888;Laerm;67239;51.680;5.976;2023-08-17T07:22:53;61.46;40.55;77.16;;
66888;Laerm;67239;51.680;5.976;2023-08-17T07:25:20;70.56;46.42;83.53;;
66888;Laerm;67239;51.680;5.976;2023-08-17T07:27:49;67.79;39.72;82.21;;
66888;Laerm;67239;51.680;5.976;2023-08-17T07:30:16;67.07;41.36;83.90;;
66888;Laerm;67239;51.680;5.976;2023-08-17T07:32:43;65.05;41.15;77.89;;
66888;Laerm;67239;51.680;5.976;2023-08-17T07:35:10;63.20;40.42;77.78;;
66888;Laerm;67239;51.680;5.976;2023-08-17T07:37:37;63.16;39.13;78.61;;
66888;Laerm;67239;51.680;5.976;2023-08-17T07:40:06;69.97;41.08;86.13;;
66888;Laerm;67239;51.680;5.976;2023-08-17T07:42:34;65.45;38.93;82.48;;
66888;Laerm;67239;51.680;5.976;2023-08-17T07:45:02;66.94;41.14;80.52;;
66888;Laerm;67239;51.680;5.976;2023-08-17T07:47:35;66.66;39.66;80.27;;
66888;Laerm;67239;51.680;5.976;2023-08-17T07:50:05;65.68;41.99;78.22;;
66888;Laerm;67239;51.680;5.976;2023-08-17T07:52:32;64.68;43.21;77.19;;
66888;Laerm;67239;51.680;5.976;2023-08-17T07:54:59;67.78;43.57;83.27;;
66888;Laerm;67239;51.680;5.976;2023-08-17T07:57:26;68.89;41.76;85.39;;
66888;Laerm;67239;51.680;5.976;2023-08-17T07:59:54;60.95;41.14;74.54;;
66888;Laerm;67239;51.680;5.976;2023-08-17T08:02:21;68.25;43.93;81.63;;
66888;Laerm;67239;51.680;5.976;2023-08-17T08:04:49;65.47;38.43;84.20;;
66888;Laerm;67239;51.680;5.976;2023-08-17T08:07:16;67.44;44.32;80.15;;
66888;Laerm;67239;51.680;5.976;2023-08-17T08:09:43;69.16;40.47;90.18;;
66888;Laerm;67239;51.680;5.976;2023-08-17T08:12:10;64.08;41.14;77.57;;
66888;Laerm;67239;51.680;5.976;2023-08-17T08:14:37;63.73;39.77;76.74;;
66888;Laerm;67239;51.680;5.976;2023-08-17T08:17:04;65.56;41.04;78.63;;
66888;Laerm;67239;51.680;5.976;2023-08-17T08:19:31;63.53;39.07;81.46;;
66888;Laerm;67239;51.680;5.976;2023-08-17T08:21:59;68.73;42.26;86.63;;
66888;Laerm;67239;51.680;5.976;2023-08-17T08:24:27;68.19;44.59;78.54;;
66888;Laerm;67239;51.680;5.976;2023-08-17T08:27:01;66.05;41.83;81.74;;
66888;Laerm;67239;51.680;5.976;2023-08-17T08:29:28;67.90;45.25;80.47;;
66888;Laerm;67239;51.680;5.976;2023-08-17T08:31:55;68.30;42.90;81.99;;
66888;Laerm;67239;51.680;5.976;2023-08-17T08:34:24;64.74;41.00;79.01;;
66888;Laerm;67239;51.680;5.976;2023-08-17T08:36:51;69.85;43.12;84.80;;
66888;Laerm;67239;51.680;5.976;2023-08-17T08:39:18;66.61;41.14;81.01;;
66888;Laerm;67239;51.680;5.976;2023-08-17T08:41:45;65.58;43.99;77.33;;
66888;Laerm;67239;51.680;5.976;2023-08-17T08:44:12;66.75;40.98;81.74;;
66888;Laerm;67239;51.680;5.976;2023-08-17T08:46:40;62.51;39.85;76.58;;
66888;Laerm;67239;51.680;5.976;2023-08-17T08:49:11;65.44;41.61;79.39;;
66888;Laerm;67239;51.680;5.976;2023-08-17T08:51:44;69.53;44.89;84.03;;
66888;Laerm;67239;51.680;5.976;2023-08-17T08:54:21;68.91;40.92;85.07;;
66888;Laerm;67239;51.680;5.976;2023-08-17T08:56:59;67.05;42.57;80.33;;
66888;Laerm;67239;51.680;5.976;2023-08-17T08:59:28;65.98;42.98;81.68;;
66888;Laerm;67239;51.680;5.976;2023-08-17T09:01:57;67.71;44.21;79.40;;
66888;Laerm;67239;51.680;5.976;2023-08-17T09:04:25;67.49;42.46;85.94;;
66888;Laerm;67239;51.680;5.976;2023-08-17T09:06:53;66.65;44.77;80.20;;
66888;Laerm;67239;51.680;5.976;2023-08-17T09:09:22;70.03;44.17;88.83;;
66888;Laerm;67239;51.680;5.976;2023-08-17T09:11:56;62.57;42.77;76.92;;
66888;Laerm;67239;51.680;5.976;2023-08-17T09:14:23;67.22;45.43;80.42;;
66888;Laerm;67239;51.680;5.976;2023-08-17T09:16:50;69.15;45.87;79.94;;
66888;Laerm;67239;51.680;5.976;2023-08-17T09:19:19;66.21;43.19;78.58;;
66888;Laerm;67239;51.680;5.976;2023-08-17T09:21:47;66.33;43.42;79.63;;
66888;Laerm;67239;51.680;5.976;2023-08-17T09:24:16;65.81;44.46;77.81;;
66888;Laerm;67239;51.680;5.976;2023-08-17T09:26:44;61.18;42.09;78.03;;
66888;Laerm;67239;51.680;5.976;2023-08-17T09:29:19;68.72;46.81;85.06;;
66888;Laerm;67239;51.680;5.976;2023-08-17T09:31:47;61.34;43.08;74.82;;
66888;Laerm;67239;51.680;5.976;2023-08-17T09:34:15;68.67;44.74;82.91;;
66888;Laerm;67239;51.680;5.976;2023-08-17T09:36:46;68.33;43.50;80.67;;
66888;Laerm;67239;51.680;5.976;2023-08-17T09:39:17;64.82;42.78;77.53;;
66888;Laerm;67239;51.680;5.976;2023-08-17T09:41:45;65.03;45.00;78.14;;
66888;Laerm;67239;51.680;5.976;2023-08-17T09:44:12;70.35;45.81;84.99;;
66888;Laerm;67239;51.680;5.976;2023-08-17T09:46:43;66.80;44.51;79.28;;
66888;Laerm;67239;51.680;5.976;2023-08-17T09:49:11;64.36;40.63;79.04;;
66888;Laerm;67239;51.680;5.976;2023-08-17T09:51:38;66.86;43.31;80.39;;
66888;Laerm;67239;51.680;5.976;2023-08-17T09:54:23;71.13;45.00;86.10;;
66888;Laerm;67239;51.680;5.976;2023-08-17T09:56:52;67.52;45.66;78.44;;
66888;Laerm;67239;51.680;5.976;2023-08-17T09:59:20;66.25;43.89;82.00;;
66888;Laerm;67239;51.680;5.976;2023-08-17T10:01:49;68.22;46.61;83.11;;
66888;Laerm;67239;51.680;5.976;2023-08-17T10:04:23;67.43;45.66;82.97;;
66888;Laerm;67239;51.680;5.976;2023-08-17T10:07:00;67.09;45.57;79.87;;
66888;Laerm;67239;51.680;5.976;2023-08-17T10:09:42;67.09;45.85;79.49;;
66888;Laerm;67239;51.680;5.976;2023-08-17T10:12:17;63.98;40.70;80.30;;
66888;Laerm;67239;51.680;5.976;2023-08-17T10:14:55;65.14;40.81;78.99;;
66888;Laerm;67239;51.680;5.976;2023-08-17T10:17:36;69.51;48.08;86.15;;
66888;Laerm;67239;51.680;5.976;2023-08-17T10:20:07;68.08;44.40;82.97;;
66888;Laerm;67239;51.680;5.976;2023-08-17T10:22:51;68.20;41.87;84.86;;
66888;Laerm;67239;51.680;5.976;2023-08-17T10:25:21;63.91;41.54;77.08;;
66888;Laerm;67239;51.680;5.976;2023-08-17T10:27:52;64.85;42.11;76.50;;
66888;Laerm;67239;51.680;5.976;2023-08-17T10:30:26;71.77;43.39;93.49;;
66888;Laerm;67239;51.680;5.976;2023-08-17T10:32:55;67.80;42.24;77.92;;
66888;Laerm;67239;51.680;5.976;2023-08-17T10:35:23;62.06;41.77;75.71;;
66888;Laerm;67239;51.680;5.976;2023-08-17T10:37:50;68.05;47.00;82.25;;
66888;Laerm;67239;51.680;5.976;2023-08-17T10:40:26;65.74;48.16;79.07;;
66888;Laerm;67239;51.680;5.976;2023-08-17T10:42:55;61.59;45.49;74.66;;
66888;Laerm;67239;51.680;5.976;2023-08-17T10:45:32;64.91;44.29;80.07;;
66888;Laerm;67239;51.680;5.976;2023-08-17T10:50:33;68.38;46.20;83.59;;
66888;Laerm;67239;51.680;5.976;2023-08-17T10:53:08;67.61;43.83;82.27;;
66888;Laerm;67239;51.680;5.976;2023-08-17T10:55:41;67.64;46.39;81.91;;
66888;Laerm;67239;51.680;5.976;2023-08-17T10:58:11;68.07;44.54;83.27;;
66888;Laerm;67239;51.680;5.976;2023-08-17T11:00:42;66.26;41.89;83.90;;
66888;Laerm;67239;51.680;5.976;2023-08-17T11:03:19;63.83;42.61;76.63;;
66888;Laerm;67239;51.680;5.976;2023-08-17T11:05:49;68.28;40.92;82.09;;
66888;Laerm;67239;51.680;5.976;2023-08-17T11:08:30;62.97;41.45;73.94;;
66888;Laerm;67239;51.680;5.976;2023-08-17T11:11:02;65.83;40.98;79.38;;
66888;Laerm;67239;51.680;5.976;2023-08-17T11:13:37;65.83;40.97;78.95;;
66888;Laerm;67239;51.680;5.976;2023-08-17T11:16:06;68.76;43.74;83.40;;
66888;Laerm;67239;51.680;5.976;2023-08-17T11:18:34;67.06;43.48;84.44;;
66888;Laerm;67239;51.680;5.976;2023-08-17T11:21:03;67.71;46.37;78.06;;
66888;Laerm;67239;51.680;5.976;2023-08-17T11:23:33;65.52;41.74;77.57;;
66888;Laerm;67239;51.680;5.976;2023-08-17T11:26:01;60.61;39.03;75.23;;
66888;Laerm;67239;51.680;5.976;2023-08-17T11:28:33;65.30;40.44;79.43;;
66888;Laerm;67239;51.680;5.976;2023-08-17T11:31:11;66.18;40.75;81.40;;
66888;Laerm;67239;51.680;5.976;2023-08-17T11:33:39;67.59;41.73;79.55;;
66888;Laerm;67239;51.680;5.976;2023-08-17T11:36:08;63.81;41.09;76.67;;
66888;Laerm;67239;51.680;5.976;2023-08-17T11:38:42;66.56;41.87;76.04;;
66888;Laerm;67239;51.680;5.976;2023-08-17T11:41:11;68.71;41.95;84.13;;
66888;Laerm;67239;51.680;5.976;2023-08-17T11:43:42;69.28;46.27;80.26;;
66888;Laerm;67239;51.680;5.976;2023-08-17T11:46:10;67.98;42.99;81.20;;
66888;Laerm;67239;51.680;5.976;2023-08-17T11:48:37;66.74;41.25;81.55;;
66888;Laerm;67239;51.680;5.976;2023-08-17T11:51:04;65.92;39.67;79.48;;
66888;Laerm;67239;51.680;5.976;2023-08-17T11:53:38;69.35;46.37;84.86;;
66888;Laerm;67239;51.680;5.976;2023-08-17T11:56:08;68.92;48.71;80.78;;
66888;Laerm;67239;51.680;5.976;2023-08-17T11:58:45;68.49;43.56;83.57;;
66888;Laerm;67239;51.680;5.976;2023-08-17T12:01:13;66.17;39.21;78.25;;
66888;Laerm;67239;51.680;5.976;2023-08-17T12:03:44;69.27;41.32;82.57;;
66888;Laerm;67239;51.680;5.976;2023-08-17T12:06:12;69.37;42.20;82.53;;
66888;Laerm;67239;51.680;5.976;2023-08-17T12:08:45;67.13;46.27;82.33;;
66888;Laerm;67239;51.680;5.976;2023-08-17T12:11:16;68.39;45.29;84.71;;
66888;Laerm;67239;51.680;5.976;2023-08-17T12:13:52;67.11;43.55;83.97;;
66888;Laerm;67239;51.680;5.976;2023-08-17T12:16:22;65.35;40.87;78.61;;
66888;Laerm;67239;51.680;5.976;2023-08-17T12:18:52;67.50;40.60;82.83;;
66888;Laerm;67239;51.680;5.976;2023-08-17T12:21:24;67.53;41.25;82.35;;
66888;Laerm;67239;51.680;5.976;2023-08-17T12:23:51;65.83;40.49;78.24;;
66888;Laerm;67239;51.680;5.976;2023-08-17T12:26:20;65.46;42.32;78.71;;
66888;Laerm;67239;51.680;5.976;2023-08-17T12:28:49;65.37;44.16;77.05;;
66888;Laerm;67239;51.680;5.976;2023-08-17T12:31:22;67.61;45.32;80.98;;
66888;Laerm;67239;51.680;5.976;2023-08-17T12:33:52;67.37;40.89;84.37;;
66888;Laerm;67239;51.680;5.976;2023-08-17T12:36:19;67.27;44.22;78.49;;
66888;Laerm;67239;51.680;5.976;2023-08-17T12:38:48;68.38;43.33;80.73;;
66888;Laerm;67239;51.680;5.976;2023-08-17T12:41:16;66.92;45.76;79.94;;
66888;Laerm;67239;51.680;5.976;2023-08-17T12:43:44;66.84;40.16;79.42;;
66888;Laerm;67239;51.680;5.976;2023-08-17T12:46:11;66.99;41.68;78.46;;
66888;Laerm;67239;51.680;5.976;2023-08-17T12:48:39;68.92;42.33;80.42;;
66888;Laerm;67239;51.680;5.976;2023-08-17T12:51:06;67.70;41.93;79.20;;
66888;Laerm;67239;51.680;5.976;2023-08-17T12:53:33;68.87;43.42;79.37;;
66888;Laerm;67239;51.680;5.976;2023-08-17T12:56:01;69.06;43.11;83.91;;
66888;Laerm;67239;51.680;5.976;2023-08-17T12:58:28;67.96;42.30;80.24;;
66888;Laerm;67239;51.680;5.976;2023-08-17T13:00:55;66.70;41.96;79.22;;
66888;Laerm;67239;51.680;5.976;2023-08-17T13:03:22;66.28;46.08;78.77;;
66888;Laerm;67239;51.680;5.976;2023-08-17T13:05:50;65.89;43.77;78.65;;
66888;Laerm;67239;51.680;5.976;2023-08-17T13:08:17;64.60;41.48;75.88;;
66888;Laerm;67239;51.680;5.976;2023-08-17T13:10:44;64.92;39.85;78.45;;
66888;Laerm;67239;51.680;5.976;2023-08-17T13:13:12;64.23;38.76;79.07;;
66888;Laerm;67239;51.680;5.976;2023-08-17T13:15:39;66.07;42.38;78.10;;
66888;Laerm;67239;51.680;5.976;2023-08-17T13:18:06;64.79;42.64;77.82;;
66888;Laerm;67239;51.680;5.976;2023-08-17T13:20:33;65.32;41.27;77.80;;
66888;Laerm;67239;51.680;5.976;2023-08-17T13:23:01;64.36;41.06;79.89;;
66888;Laerm;67239;51.680;5.976;2023-08-17T13:25:28;65.63;41.77;81.48;;
66888;Laerm;67239;51.680;5.976;2023-08-17T13:27:55;66.15;41.77;77.96;;
66888;Laerm;67239;51.680;5.976;2023-08-17T13:30:22;68.46;42.12;83.15;;
66888;Laerm;67239;51.680;5.976;2023-08-17T13:32:51;70.23;45.34;84.05;;
66888;Laerm;67239;51.680;5.976;2023-08-17T13:35:18;67.68;43.17;78.62;;
66888;Laerm;67239;51.680;5.976;2023-08-17T13:37:45;68.46;43.38;82.99;;
66888;Laerm;67239;51.680;5.976;2023-08-17T13:40:17;68.06;43.26;80.29;;
66888;Laerm;67239;51.680;5.976;2023-08-17T13:42:44;65.40;40.44;78.23;;
66888;Laerm;67239;51.680;5.976;2023-08-17T13:45:11;66.04;38.62;79.57;;
66888;Laerm;67239;51.680;5.976;2023-08-17T13:47:38;67.80;42.87;81.37;;
66888;Laerm;67239;51.680;5.976;2023-08-17T13:50:06;69.62;48.21;80.06;;
66888;Laerm;67239;51.680;5.976;2023-08-17T13:52:33;67.39;45.04;78.74;;
66888;Laerm;67239;51.680;5.976;2023-08-17T13:55:00;67.00;41.68;81.03;;